Time;durP1;ratioP1;P1;durP2;ratioP2;P2;SDS_P1;SDS_P2;PMS_P1;PMS_P2;Temp;Humidity;BMP_temperature;BMP_pressure;BME280_temperature;BME280_humidity;BME280_pressure;Samples;Min_cycle;Max_cycle;Signal;HPM_P1;HPM_P2
2022/07/20 00:03:46;;;;;;;2.20;1.27;;;;;;;22.24;54.90;96639.63;10378968;28;20022;-24
2022/07/20 00:14:06;;;;;;;1.80;1.42;;;;;;;22.08;55.56;96647.56;10377030;28;20061;-24
2022/07/20 00:19:07;;;;;;;1.38;1.25;;;;;;;22.05;55.72;96643.34;10368467;28;20126;-24
2022/07/20 00:24:07;;;;;;;1.60;1.50;;;;;;;22.02;55.83;96638.31;10381547;28;20542;-25
2022/07/20 00:29:08;;;;;;;2.42;1.50;;;;;;;22.00;55.84;96640.03;10375584;28;20053;-25
2022/07/20 00:34:08;;;;;;;2.93;1.27;;;;;;;22.01;55.95;96643.41;10376248;28;20558;-24
2022/07/20 00:39:09;;;;;;;3.90;1.77;;;;;;;22.21;54.72;96639.69;10383007;28;20386;-24
2022/07/20 00:44:10;;;;;;;2.35;1.40;;;;;;;22.41;53.92;96641.94;10381278;28;20374;-23
2022/07/20 00:49:12;;;;;;;2.60;1.75;;;;;;;22.27;54.78;96639.59;10386068;28;20030;-25
2022/07/20 00:54:14;;;;;;;1.90;1.25;;;;;;;22.12;55.34;96641.53;10372145;28;20102;-24
2022/07/20 00:59:14;;;;;;;1.45;1.35;;;;;;;22.07;55.39;96643.31;10376817;28;20124;-23
2022/07/20 01:04:15;;;;;;;1.67;1.30;;;;;;;22.03;55.48;96644.22;10375069;28;20033;-25
2022/07/20 01:09:18;;;;;;;3.13;1.50;;;;;;;22.03;55.77;96644.22;10368233;28;20289;-25
2022/07/20 01:14:18;;;;;;;1.58;1.30;;;;;;;22.02;55.40;96645.09;10368263;28;20034;-24
2022/07/20 01:19:18;;;;;;;3.10;1.15;;;;;;;22.00;55.55;96645.13;10373016;28;20034;-24
2022/07/20 01:24:19;;;;;;;2.10;1.33;;;;;;;22.23;53.81;96647.31;10369271;28;20029;-25
2022/07/20 01:29:19;;;;;;;1.65;1.55;;;;;;;22.41;53.84;96645.31;10370205;28;20484;-24
2022/07/20 01:34:20;;;;;;;1.70;1.33;;;;;;;22.25;54.77;96643.03;10375311;28;20034;-24
2022/07/20 01:39:20;;;;;;;1.52;1.42;;;;;;;22.10;55.39;96651.78;10369010;28;20037;-23
2022/07/20 01:44:22;;;;;;;1.50;1.00;;;;;;;22.06;55.38;96655.22;10373448;28;20029;-24
2022/07/20 01:49:22;;;;;;;1.40;1.10;;;;;;;22.03;55.49;96656.97;10373939;28;20087;-25
2022/07/20 01:54:23;;;;;;;2.43;1.63;;;;;;;22.03;55.52;96669.72;10370483;28;20385;-24
2022/07/20 01:59:23;;;;;;;1.40;1.30;;;;;;;21.94;55.75;96645.22;10370467;28;20038;-27
2022/07/20 02:04:23;;;;;;;2.60;1.60;;;;;;;22.00;55.57;96668.09;10371067;28;20034;-24
2022/07/20 02:09:24;;;;;;;1.40;1.30;;;;;;;22.24;54.03;96672.78;10372343;28;20045;-23
2022/07/20 02:14:24;;;;;;;1.73;1.40;;;;;;;22.40;54.13;96666.56;10368562;28;20038;-25
2022/07/20 02:19:25;;;;;;;1.38;1.27;;;;;;;22.27;54.67;96672.75;10372764;28;20037;-25
2022/07/20 02:24:25;;;;;;;3.17;1.97;;;;;;;22.12;55.24;96675.53;10370122;28;20029;-24
2022/07/20 02:29:25;;;;;;;2.03;1.33;;;;;;;22.06;55.08;96665.41;10371169;28;20033;-23
2022/07/20 02:34:26;;;;;;;4.07;1.47;;;;;;;22.04;55.45;96676.50;10366895;28;20081;-24
2022/07/20 02:39:26;;;;;;;1.23;1.13;;;;;;;22.02;55.21;96674.00;10367895;28;20029;-24
2022/07/20 02:44:27;;;;;;;1.43;1.00;;;;;;;22.00;55.24;96668.09;10372007;28;20056;-24
2022/07/20 02:49:27;;;;;;;1.23;1.13;;;;;;;21.99;55.44;96674.00;10368155;28;20030;-25
2022/07/20 02:54:27;;;;;;;1.33;1.23;;;;;;;22.22;53.13;96666.88;10364599;28;20297;-25
2022/07/20 02:59:28;;;;;;;2.47;1.40;;;;;;;22.41;52.72;96668.28;10371316;28;20172;-25
2022/07/20 03:04:28;;;;;;;1.00;1.00;;;;;;;22.23;54.20;96658.34;10369443;28;20026;-23
2022/07/20 03:09:28;;;;;;;1.00;1.00;;;;;;;22.10;54.80;96656.88;10363826;28;20091;-23
2022/07/20 03:14:29;;;;;;;1.83;1.10;;;;;;;22.05;54.94;96673.94;10368011;28;20026;-24
2022/07/20 03:19:29;;;;;;;2.87;1.10;;;;;;;21.98;54.71;96674.88;10370892;28;20034;-24
2022/07/20 03:24:29;;;;;;;1.80;1.33;;;;;;;22.00;54.98;96683.38;10369462;28;20114;-25
2022/07/20 03:29:30;;;;;;;1.63;1.40;;;;;;;22.00;54.92;96685.94;10372400;28;20033;-24
2022/07/20 03:34:31;;;;;;;1.20;1.10;;;;;;;21.98;55.13;96686.81;10365599;28;20018;-24
2022/07/20 03:39:31;;;;;;;3.78;1.67;;;;;;;22.23;52.82;96678.75;10373372;28;20028;-25
2022/07/20 03:44:31;;;;;;;1.23;1.13;;;;;;;22.40;53.09;96686.16;10378875;28;20034;-25
2022/07/20 03:49:32;;;;;;;3.90;2.25;;;;;;;22.35;52.70;96683.69;10373270;28;20049;-24
2022/07/20 03:54:32;;;;;;;5.03;2.50;;;;;;;22.22;53.57;96679.63;10372099;28;20067;-24
2022/07/20 03:59:33;;;;;;;3.70;2.53;;;;;;;22.18;53.18;96683.09;10377781;28;20030;-24
2022/07/20 04:04:34;;;;;;;2.47;1.70;;;;;;;22.16;53.80;96689.91;10376827;28;20347;-23
2022/07/20 04:09:46;;;;;;;2.00;1.45;;;;;;;22.15;53.21;96695.06;10378680;28;20037;-23
2022/07/20 04:14:52;;;;;;;2.00;1.80;;;;;;;22.16;53.16;96689.09;10371241;28;20034;-23
2022/07/20 04:19:52;;;;;;;2.28;1.80;;;;;;;22.03;54.60;96685.00;10377125;28;20113;-25
2022/07/20 04:24:53;;;;;;;3.85;2.15;;;;;;;22.32;50.52;96693.91;10380378;28;20632;-24
2022/07/20 04:29:53;;;;;;;3.28;2.10;;;;;;;22.44;51.11;96703.13;10377267;28;20030;-24
2022/07/20 04:34:53;;;;;;;2.37;1.50;;;;;;;22.24;53.69;96705.94;10371907;28;20559;-22
2022/07/20 04:39:54;;;;;;;2.00;1.87;;;;;;;22.17;51.88;96709.47;10373575;28;20121;-23
2022/07/20 04:44:54;;;;;;;1.17;1.07;;;;;;;22.09;54.33;96711.28;10377774;28;20036;-24
2022/07/20 04:49:54;;;;;;;4.27;1.50;;;;;;;22.08;54.72;96696.00;10370084;28;20173;-24
2022/07/20 04:54:55;;;;;;;3.87;1.33;;;;;;;22.07;54.41;96696.88;10368173;28;20044;-23
2022/07/20 04:59:55;;;;;;;4.60;2.03;;;;;;;22.04;54.44;96692.66;10370705;28;20400;-24
2022/07/20 05:04:55;;;;;;;8.57;2.97;;;;;;;22.10;53.67;96696.81;10368619;28;20029;-24
2022/07/20 05:09:56;;;;;;;3.70;2.37;;;;;;;22.30;52.29;96700.75;10378085;28;20034;-23
2022/07/20 05:14:56;;;;;;;1.80;1.13;;;;;;;22.41;52.97;96698.91;10370852;28;20030;-23
2022/07/20 05:19:57;;;;;;;2.90;1.30;;;;;;;22.22;54.41;96710.22;10380115;28;20037;-24
2022/07/20 05:24:57;;;;;;;4.88;1.75;;;;;;;22.14;54.35;96713.78;10379605;28;20034;-24
2022/07/20 05:29:57;;;;;;;2.67;1.40;;;;;;;22.07;54.52;96728.28;10370947;28;20115;-24
2022/07/20 05:34:58;;;;;;;2.00;1.80;;;;;;;22.06;54.94;96736.00;10380861;28;20030;-25
2022/07/20 05:39:58;;;;;;;5.33;1.90;;;;;;;22.03;55.10;96731.75;10373213;28;20036;-24
2022/07/20 05:44:58;;;;;;;5.33;2.20;;;;;;;22.02;55.06;96739.44;10368077;28;20432;-25
2022/07/20 05:49:59;;;;;;;10.10;3.13;;;;;;;22.04;54.42;96748.75;10374213;28;20040;-25
2022/07/20 05:54:59;;;;;;;4.20;2.20;;;;;;;22.29;53.42;96744.13;10379534;28;20307;-24
2022/07/20 06:00:00;;;;;;;2.73;1.43;;;;;;;22.40;53.95;96752.50;10365699;28;20030;-24
2022/07/20 06:05:00;;;;;;;2.07;1.20;;;;;;;22.22;54.51;96758.69;10378418;28;20400;-25
2022/07/20 06:10:00;;;;;;;3.78;1.60;;;;;;;22.14;54.64;96763.06;10375725;28;20030;-24
2022/07/20 06:15:01;;;;;;;3.00;2.20;;;;;;;22.09;54.76;96762.28;10372764;28;20162;-24
2022/07/20 06:20:08;;;;;;;3.58;1.90;;;;;;;22.04;54.97;96758.94;10379666;28;20045;-25
2022/07/20 06:25:09;;;;;;;;;;;;;;;22.05;55.06;96755.53;10370389;28;20117;-24
2022/07/20 06:30:11;;;;;;;2.42;2.10;;;;;;;22.01;55.26;96756.44;10371317;28;19917;-25
2022/07/20 06:35:12;;;;;;;5.70;3.10;;;;;;;22.10;53.78;96758.88;10374422;28;20064;-23
2022/07/20 06:40:12;;;;;;;2.85;2.22;;;;;;;22.34;53.51;96752.56;10379303;28;20044;-24
2022/07/20 06:45:13;;;;;;;1.40;1.30;;;;;;;22.39;53.92;96755.91;10371831;28;20061;-23
2022/07/20 06:50:13;;;;;;;2.10;1.40;;;;;;;22.22;54.59;96761.25;10376537;28;20121;-24
2022/07/20 06:55:13;;;;;;;2.07;1.87;;;;;;;22.12;54.88;96762.25;10377033;28;20324;-24
2022/07/20 07:00:14;;;;;;;3.53;2.10;;;;;;;22.09;55.12;96766.53;10368258;28;20038;-25
2022/07/20 07:05:15;;;;;;;3.20;2.03;;;;;;;22.06;55.14;96761.47;10376296;28;20405;-25
2022/07/20 07:10:15;;;;;;;2.50;1.92;;;;;;;22.03;55.29;96757.25;10364753;28;20467;-23
2022/07/20 07:15:16;;;;;;;2.20;2.00;;;;;;;22.02;55.13;96765.78;10370120;28;20026;-23
2022/07/20 07:20:16;;;;;;;5.28;2.97;;;;;;;22.12;54.08;96772.44;10377544;28;20037;-24
2022/07/20 07:25:17;;;;;;;2.65;2.40;;;;;;;22.34;53.65;96763.63;10376027;28;20117;-25
2022/07/20 07:30:18;;;;;;;2.40;1.70;;;;;;;22.38;54.07;96765.25;10367602;28;20064;-24
2022/07/20 07:35:19;;;;;;;1.50;1.40;;;;;;;22.18;54.92;96764.72;10370615;28;20030;-24
2022/07/20 07:40:20;;;;;;;2.17;1.50;;;;;;;22.11;55.09;96760.56;10374792;28;20327;-25
2022/07/20 07:45:20;;;;;;;1.97;1.80;;;;;;;22.07;55.34;96753.78;10372004;28;20084;-25
2022/07/20 07:50:21;;;;;;;3.35;2.40;;;;;;;22.07;55.14;96758.88;10377352;28;20041;-24
2022/07/20 07:55:21;;;;;;;3.08;2.40;;;;;;;22.05;55.25;96758.06;10369270;28;20466;-24
2022/07/20 08:00:22;;;;;;;3.85;2.05;;;;;;;22.04;55.50;96751.28;10365632;28;20117;-24
2022/07/20 08:05:22;;;;;;;4.60;3.30;;;;;;;22.18;54.17;96758.75;10374371;28;20030;-24
2022/07/20 08:10:23;;;;;;;2.42;1.90;;;;;;;22.38;54.02;96770.34;10370707;28;20032;-25
2022/07/20 08:15:23;;;;;;;1.52;1.40;;;;;;;22.40;54.11;96768.63;10369024;28;20088;-23
2022/07/20 08:20:24;;;;;;;3.08;1.45;;;;;;;22.21;55.00;96779.97;10375791;28;20049;-24
2022/07/20 08:25:25;;;;;;;2.38;2.17;;;;;;;22.13;55.08;96779.22;10382829;28;20030;-24
2022/07/20 08:30:25;;;;;;;2.15;1.95;;;;;;;22.09;55.18;96780.13;10374279;28;20026;-24
2022/07/20 08:35:25;;;;;;;2.60;2.40;;;;;;;22.06;55.23;96769.97;10383530;28;20030;-25
2022/07/20 08:40:27;;;;;;;2.00;1.87;;;;;;;22.03;55.52;96775.09;10378877;28;20061;-24
2022/07/20 08:45:28;;;;;;;2.85;2.28;;;;;;;22.03;55.47;96787.84;10370265;28;20283;-23
2022/07/20 08:50:32;;;;;;;3.40;3.10;;;;;;;22.20;54.46;96790.16;10383454;28;20034;-24
2022/07/20 08:55:33;;;;;;;1.85;1.70;;;;;;;22.39;54.32;96787.34;10371619;28;20033;-24
2022/07/20 09:00:33;;;;;;;1.70;1.55;;;;;;;22.38;54.06;96784.81;10371085;28;20036;-26
2022/07/20 09:05:36;;;;;;;1.80;1.70;;;;;;;22.21;55.19;96795.25;10380573;28;20030;-24
2022/07/20 09:10:41;;;;;;;2.20;1.75;;;;;;;22.15;55.24;96777.47;10380931;28;20041;-26
2022/07/20 09:15:47;;;;;;;3.40;3.10;;;;;;;22.10;55.35;96784.38;10374534;28;20040;-26
2022/07/20 09:20:52;;;;;;;3.88;2.95;;;;;;;22.07;55.54;96789.50;10381169;28;20034;-24
2022/07/20 09:25:57;;;;;;;3.05;2.75;;;;;;;22.06;55.67;96802.28;10372845;28;20034;-24
2022/07/20 09:30:58;;;;;;;3.57;2.90;;;;;;;22.04;55.61;96799.75;10372789;28;20493;-23
2022/07/20 09:36:03;;;;;;;2.37;2.17;;;;;;;22.26;54.93;96805.41;10377405;28;20037;-25
2022/07/20 09:41:19;;;;;;;1.73;1.63;;;;;;;22.43;54.70;96804.34;10372535;28;20034;-24
2022/07/20 09:46:25;;;;;;;;;;;;;;;22.34;54.75;96809.56;10368914;28;20459;-24
2022/07/20 09:51:28;;;;;;;2.50;2.30;;;;;;;22.16;55.23;96803.84;10378473;28;20364;-23
2022/07/20 09:56:30;;;;;;;3.80;3.47;;;;;;;22.12;55.53;96818.34;10380966;28;20218;-24
2022/07/20 10:01:33;;;;;;;4.88;3.33;;;;;;;22.09;55.58;96828.59;10372109;28;20131;-24
2022/07/20 10:06:35;;;;;;;7.75;3.60;;;;;;;22.07;55.67;96840.50;10364727;28;20122;-25
2022/07/20 10:11:36;;;;;;;4.22;3.70;;;;;;;22.07;55.81;96855.78;10378486;28;20052;-25
2022/07/20 10:16:37;;;;;;;5.07;4.18;;;;;;;22.07;55.65;96849.88;10373617;28;20065;-24
2022/07/20 10:21:43;;;;;;;3.50;3.20;;;;;;;22.34;55.15;96862.25;10371845;28;20042;-24
2022/07/20 10:26:48;;;;;;;2.38;2.00;;;;;;;22.46;54.60;96865.53;10373251;28;20057;-23
2022/07/20 10:31:50;;;;;;;2.30;2.10;;;;;;;22.30;54.96;96876.75;10371031;28;20049;-24
2022/07/20 10:37:23;;;;;;;2.95;2.65;;;;;;;22.18;55.39;96879.47;10374748;28;20124;-24
2022/07/20 10:42:47;;;;;;;4.35;3.90;;;;;;;22.13;55.61;96876.13;10375250;28;20045;-24
2022/07/20 10:48:14;;;;;;;7.07;4.90;;;;;;;22.09;55.79;96889.78;10352640;28;20131;-24
2022/07/20 10:53:14;;;;;;;5.10;4.60;;;;;;;22.09;55.96;96889.78;10363924;28;20042;-24
2022/07/20 10:58:31;;;;;;;7.87;5.63;;;;;;;22.06;55.81;96889.81;10375377;28;20041;-24
2022/07/20 11:03:40;;;;;;;9.55;6.85;;;;;;;22.21;56.07;96884.53;10373739;28;20029;-24
2022/07/20 11:09:02;;;;;;;3.92;3.58;;;;;;;22.44;55.25;96879.16;10369403;28;20033;-24
2022/07/20 11:14:05;;;;;;;3.13;2.83;;;;;;;22.35;55.14;96852.06;10365448;28;20088;-24
2022/07/20 11:19:06;;;;;;;3.50;3.20;;;;;;;22.22;55.53;96877.75;10372684;28;20038;-24
2022/07/20 11:24:23;;;;;;;4.30;3.75;;;;;;;22.13;56.06;96881.22;10377484;28;20051;-24
2022/07/20 11:29:25;;;;;;;7.18;4.50;;;;;;;22.12;55.98;96881.22;10367800;28;20128;-24
2022/07/20 11:34:25;;;;;;;9.63;8.00;;;;;;;22.14;56.10;96867.59;10375841;28;20055;-25
2022/07/20 11:39:26;;;;;;;5.90;4.90;;;;;;;22.07;56.35;96860.88;10365132;28;20045;-25
2022/07/20 11:44:27;;;;;;;8.48;5.25;;;;;;;22.02;56.28;96870.31;10370176;28;20501;-24
2022/07/20 11:49:27;;;;;;;12.45;8.18;;;;;;;22.30;57.37;96879.31;10371839;28;20042;-25
2022/07/20 11:54:33;;;;;;;6.37;3.80;;;;;;;22.49;56.13;96859.56;10368792;28;20465;-24
2022/07/20 11:59:34;;;;;;;7.60;3.22;;;;;;;22.36;55.50;96858.84;10367031;28;20236;-24
2022/07/20 12:04:35;;;;;;;3.30;3.00;;;;;;;22.20;55.87;96857.34;10375644;28;20033;-25
2022/07/20 12:09:35;;;;;;;7.45;4.25;;;;;;;22.18;55.86;96853.13;10380688;28;20041;-24
2022/07/20 12:14:39;;;;;;;8.02;5.40;;;;;;;22.14;56.16;96841.28;10377257;28;20619;-25
2022/07/20 12:19:48;;;;;;;5.30;4.80;;;;;;;22.11;56.41;96844.72;10373895;28;20075;-24
2022/07/20 12:24:51;;;;;;;9.30;5.63;;;;;;;22.11;56.54;96852.34;10384390;28;20103;-24
2022/07/20 12:29:52;;;;;;;8.45;6.13;;;;;;;22.12;56.39;96848.09;10367732;28;20038;-23
2022/07/20 12:34:54;;;;;;;6.13;4.55;;;;;;;22.38;56.92;96833.28;10374052;28;20034;-24
2022/07/20 12:39:55;;;;;;;3.60;3.30;;;;;;;22.52;55.64;96829.75;10380331;28;20026;-24
2022/07/20 12:45:01;;;;;;;4.37;3.40;;;;;;;22.42;55.74;96810.31;10371673;28;20084;-25
2022/07/20 12:50:02;;;;;;;7.05;5.40;;;;;;;22.29;56.10;96802.81;10375913;28;20284;-24
2022/07/20 12:55:02;;;;;;;10.93;9.82;;;;;;;22.24;56.27;96794.38;10378678;28;20040;-24
2022/07/20 13:00:06;;;;;;;16.77;11.32;;;;;;;22.22;56.20;96789.28;10367894;28;20396;-24
2022/07/20 13:05:06;;;;;;;10.55;9.05;;;;;;;22.17;56.42;96780.88;10380186;28;20029;-25
2022/07/20 13:10:07;;;;;;;10.20;8.77;;;;;;;22.17;56.41;96780.03;10367186;28;20535;-23
2022/07/20 13:15:08;;;;;;;12.27;9.18;;;;;;;22.16;56.55;96765.59;10374543;28;20288;-23
2022/07/20 13:20:09;;;;;;;7.80;5.80;;;;;;;22.45;56.50;96760.94;10381029;28;20033;-24
2022/07/20 13:25:10;;;;;;;3.53;3.22;;;;;;;22.55;55.50;96757.41;10382015;28;20030;-24
2022/07/20 13:30:11;;;;;;;4.95;4.28;;;;;;;22.40;55.90;96748.22;10372004;28;20032;-24
2022/07/20 13:35:11;;;;;;;6.38;4.90;;;;;;;22.31;56.18;96743.25;10380883;28;20514;-24
2022/07/20 13:40:11;;;;;;;8.60;7.47;;;;;;;22.24;56.15;96739.09;10375264;28;20140;-24
2022/07/20 13:45:12;;;;;;;8.77;7.70;;;;;;;22.20;56.46;96744.25;10370660;28;20444;-24
2022/07/20 13:50:13;;;;;;;8.48;7.60;;;;;;;22.19;56.47;96745.13;10375932;28;20377;-23
2022/07/20 13:55:13;;;;;;;9.98;9.07;;;;;;;22.20;56.46;96745.13;10369282;28;20030;-24
2022/07/20 14:00:14;;;;;;;11.50;8.60;;;;;;;22.25;57.71;96732.31;10364854;28;20037;-24
2022/07/20 14:05:14;;;;;;;5.95;4.85;;;;;;;22.49;56.48;96711.56;10378176;28;20281;-24
2022/07/20 14:10:15;;;;;;;3.40;2.92;;;;;;;22.53;55.45;96702.97;10374156;28;20038;-24
2022/07/20 14:15:15;;;;;;;5.68;4.32;;;;;;;22.43;56.08;96702.31;10369169;28;20037;-24
2022/07/20 14:20:16;;;;;;;11.03;6.47;;;;;;;22.36;56.10;96698.13;10377477;28;20037;-25
2022/07/20 14:25:16;;;;;;;12.00;9.10;;;;;;;22.24;58.09;96690.63;10368991;28;20029;-25
2022/07/20 14:30:17;;;;;;;13.67;6.07;;;;;;;22.19;56.58;96684.78;10366762;28;20296;-24
2022/07/20 14:35:17;;;;;;;7.03;6.20;;;;;;;22.20;56.68;96678.81;10378664;28;20285;-24
2022/07/20 14:40:18;;;;;;;10.70;7.43;;;;;;;22.21;57.25;96661.78;10373432;28;20492;-24
2022/07/20 14:45:18;;;;;;;7.57;5.15;;;;;;;22.36;57.31;96661.56;10330089;28;20617;-22
2022/07/20 14:50:19;;;;;;;7.17;4.67;;;;;;;22.57;56.19;96664.63;10344212;28;20491;-24
2022/07/20 14:55:21;;;;;;;3.88;3.22;;;;;;;22.55;55.69;96656.16;10336934;28;20293;-25
2022/07/20 15:00:22;;;;;;;5.53;3.70;;;;;;;22.40;56.10;96658.91;10328731;28;20432;-24
2022/07/20 15:05:23;;;;;;;6.45;5.60;;;;;;;22.31;56.20;96659.06;10333035;28;20022;-25
2022/07/20 15:10:23;;;;;;;9.15;8.25;;;;;;;22.28;56.44;96665.94;10328247;28;20030;-24
2022/07/20 15:15:24;;;;;;;10.48;7.88;;;;;;;22.22;56.59;96682.19;10333615;28;20073;-24
2022/07/20 15:20:24;;;;;;;8.55;7.70;;;;;;;22.24;56.69;96695.75;10329738;28;20038;-25
2022/07/20 15:25:25;;;;;;;4.90;3.83;;;;;;;22.19;57.06;96687.34;10352542;28;20034;-24
2022/07/20 15:30:25;;;;;;;7.35;4.90;;;;;;;22.42;57.31;96675.09;10364977;28;20034;-24
2022/07/20 15:35:26;;;;;;;8.70;4.53;;;;;;;22.54;56.50;96672.34;10372176;28;20041;-24
2022/07/20 15:40:26;;;;;;;5.72;3.83;;;;;;;22.56;56.19;96706.31;10358557;28;20037;-25
2022/07/20 15:45:27;;;;;;;4.35;3.92;;;;;;;22.33;56.12;96675.19;10352459;28;20029;-24
2022/07/20 15:50:28;;;;;;;10.05;5.18;;;;;;;22.32;56.59;96693.09;10365088;28;20400;-24
2022/07/20 15:55:28;;;;;;;9.13;5.43;;;;;;;22.25;56.57;96664.28;10358623;28;20026;-24
2022/07/20 16:00:30;;;;;;;8.05;5.60;;;;;;;22.21;56.72;96649.88;10362073;28;20296;-24
2022/07/20 16:05:30;;;;;;;8.55;6.93;;;;;;;22.24;56.62;96670.22;10368567;28;20542;-24
2022/07/20 16:10:31;;;;;;;12.00;9.57;;;;;;;22.29;58.44;96701.63;10369841;28;20075;-24
2022/07/20 16:15:32;;;;;;;4.28;3.85;;;;;;;22.55;57.40;96722.50;10362141;28;20033;-24
2022/07/20 16:20:33;;;;;;;4.53;3.20;;;;;;;22.60;56.03;96720.72;10376688;28;20038;-24
2022/07/20 16:25:33;;;;;;;3.95;3.60;;;;;;;22.42;56.46;96731.22;10373245;28;20034;-25
2022/07/20 16:30:34;;;;;;;5.97;4.63;;;;;;;22.33;56.56;96736.41;10362884;28;20042;-27
2022/07/20 16:35:34;;;;;;;6.97;5.40;;;;;;;22.28;56.76;96737.34;10368759;28;20045;-24
2022/07/20 16:40:35;;;;;;;6.50;3.50;;;;;;;22.23;56.92;96750.16;10366645;28;20141;-23
2022/07/20 16:45:35;;;;;;;7.03;5.03;;;;;;;22.24;57.50;96746.75;10370127;28;20492;-25
2022/07/20 16:50:35;;;;;;;9.53;6.40;;;;;;;22.28;57.09;96767.97;10375204;28;20045;-25
2022/07/20 16:55:36;;;;;;;6.00;4.70;;;;;;;22.51;58.03;96817.84;10372051;28;20589;-24
2022/07/20 17:00:37;;;;;;;6.55;3.33;;;;;;;22.64;56.55;96839.75;10324202;28;20041;-25
2022/07/20 17:05:39;;;;;;;6.55;4.13;;;;;;;22.45;56.55;96802.63;10362088;28;20033;-24
2022/07/20 17:10:39;;;;;;;6.18;4.00;;;;;;;22.32;56.65;96635.25;10378275;28;20034;-25
2022/07/20 17:15:40;;;;;;;8.63;4.82;;;;;;;22.25;56.82;96638.78;10370889;28;20030;-24
2022/07/20 17:20:41;;;;;;;10.40;6.32;;;;;;;22.29;56.75;96699.06;10372116;28;20042;-25
2022/07/20 17:25:42;;;;;;;12.75;8.00;;;;;;;22.30;57.00;96773.91;10370146;28;20088;-24
2022/07/20 17:30:42;;;;;;;11.70;9.00;;;;;;;22.26;56.95;96777.34;10367623;28;20092;-26
2022/07/20 17:35:43;;;;;;;13.40;11.13;;;;;;;22.39;59.83;96787.34;10377638;28;20488;-24
2022/07/20 17:40:43;;;;;;;4.77;4.07;;;;;;;22.62;57.53;96821.06;10365276;28;20296;-25
2022/07/20 17:45:44;;;;;;;3.45;3.15;;;;;;;22.60;57.03;96802.41;10368734;28;20304;-25
2022/07/20 17:50:44;;;;;;;8.10;5.25;;;;;;;22.52;57.11;96847.59;10377268;28;20040;-24
2022/07/20 17:55:45;;;;;;;9.23;7.93;;;;;;;22.47;57.56;96877.41;10373457;28;20144;-25
2022/07/20 18:00:46;;;;;;;6.68;5.97;;;;;;;22.43;57.29;96855.38;10361732;28;20360;-24
2022/07/20 18:05:46;;;;;;;6.83;5.67;;;;;;;22.34;56.83;96845.28;10368437;28;20527;-24
2022/07/20 18:10:47;;;;;;;7.13;4.30;;;;;;;22.30;57.04;96898.91;10361939;28;20041;-24
2022/07/20 18:15:47;;;;;;;5.23;4.00;;;;;;;22.31;56.88;96924.38;10367335;28;20298;-25
2022/07/20 18:20:48;;;;;;;3.67;3.30;;;;;;;22.50;57.76;96884.19;10371593;28;20351;-24
2022/07/20 18:25:48;;;;;;;3.00;2.70;;;;;;;22.67;57.07;96821.88;10371884;28;20317;-25
2022/07/20 18:30:50;;;;;;;3.40;2.65;;;;;;;22.52;56.29;96788.91;10370311;28;20030;-24
2022/07/20 18:35:51;;;;;;;3.80;2.97;;;;;;;22.41;56.57;96834.13;10362187;28;20038;-25
2022/07/20 18:40:51;;;;;;;6.40;3.53;;;;;;;22.40;58.52;96845.16;10360410;28;20045;-25
2022/07/20 18:45:58;;;;;;;4.18;3.22;;;;;;;22.33;57.23;96833.34;10365271;28;20132;-24
2022/07/20 18:50:59;;;;;;;5.63;5.03;;;;;;;22.57;61.81;96858.56;10371112;28;20386;-25
2022/07/20 18:56:00;;;;;;;8.02;5.63;;;;;;;22.79;64.00;96877.84;10371669;28;20034;-25
2022/07/20 19:01:01;;;;;;;5.90;3.53;;;;;;;22.89;60.71;96897.25;10358408;28;20042;-25
2022/07/20 19:06:03;;;;;;;8.00;4.57;;;;;;;22.87;64.26;96860.69;10370534;28;20033;-24
2022/07/20 19:11:07;;;;;;;5.35;4.05;;;;;;;22.62;59.66;96854.25;10361887;28;20118;-25
2022/07/20 19:16:07;;;;;;;5.32;4.05;;;;;;;23.00;64.91;96908.13;10364580;28;20120;-24
2022/07/20 19:21:08;;;;;;;6.20;4.05;;;;;;;23.12;65.80;96919.88;10373465;28;20412;-25
2022/07/20 19:26:08;;;;;;;5.28;3.90;;;;;;;23.02;63.43;96916.66;10364755;28;20576;-24
2022/07/20 19:31:09;;;;;;;6.47;3.95;;;;;;;22.75;59.43;96939.16;10357401;28;20029;-25
2022/07/20 19:36:11;;;;;;;4.57;3.20;;;;;;;22.57;59.05;96934.31;10365244;28;20461;-25
2022/07/20 19:41:11;;;;;;;6.93;4.80;;;;;;;22.91;66.50;96955.97;10365805;28;20029;-24
2022/07/20 19:46:12;;;;;;;5.53;4.30;;;;;;;22.98;67.69;96986.50;10362332;28;20021;-25
2022/07/20 19:51:13;;;;;;;8.00;4.47;;;;;;;22.86;63.89;97030.06;10370335;28;20029;-25
2022/07/20 19:56:13;;;;;;;6.93;4.90;;;;;;;22.69;61.52;97052.41;10366168;28;20052;-24
2022/07/20 20:01:14;;;;;;;7.82;5.15;;;;;;;22.70;60.60;97053.22;10360833;28;20455;-24
2022/07/20 20:06:15;;;;;;;5.60;4.63;;;;;;;22.57;60.89;97047.41;10371911;28;20041;-25
2022/07/20 20:11:15;;;;;;;4.93;4.30;;;;;;;22.61;63.08;97092.47;10362842;28;20029;-24
2022/07/20 20:16:16;;;;;;;5.83;4.97;;;;;;;22.56;59.66;97101.88;10361163;28;20041;-24
2022/07/20 20:21:16;;;;;;;5.90;5.13;;;;;;;22.55;63.43;97074.66;10370737;28;20092;-25
2022/07/20 20:26:17;;;;;;;10.80;6.03;;;;;;;22.86;70.09;97059.84;10373234;28;20041;-25
2022/07/20 20:31:17;;;;;;;7.32;4.40;;;;;;;22.75;63.74;97072.75;10373847;28;20087;-25
2022/07/20 20:36:18;;;;;;;7.00;4.77;;;;;;;22.68;66.08;97040.50;10365163;28;20462;-24
2022/07/20 20:41:18;;;;;;;8.30;5.60;;;;;;;22.74;71.01;97071.06;10368872;28;20451;-25
2022/07/20 20:46:19;;;;;;;7.50;4.53;;;;;;;22.61;62.13;97089.06;10370019;28;20403;-24
2022/07/20 20:51:21;;;;;;;9.75;6.00;;;;;;;22.52;60.84;97087.47;10382682;28;20033;-23
2022/07/20 20:56:21;;;;;;;4.70;3.88;;;;;;;21.57;64.96;97112.81;10370013;28;20038;-24
2022/07/20 21:01:22;;;;;;;5.15;4.35;;;;;;;21.35;68.77;97106.16;10370458;28;20030;-24
2022/07/20 21:06:23;;;;;;;8.35;5.07;;;;;;;21.33;71.19;97090.06;10380132;28;20489;-24
2022/07/20 21:11:24;;;;;;;5.80;5.03;;;;;;;21.22;73.13;97093.50;10373728;28;20268;-24
2022/07/20 21:16:25;;;;;;;5.30;4.05;;;;;;;21.33;72.35;97082.41;10375646;28;20109;-24
2022/07/20 21:21:25;;;;;;;6.38;4.68;;;;;;;21.30;70.84;97092.59;10380064;28;20030;-23
2022/07/20 21:26:26;;;;;;;6.47;5.60;;;;;;;21.24;73.83;97084.16;10374886;28;20025;-24
2022/07/20 21:31:26;;;;;;;8.07;4.77;;;;;;;21.22;73.19;97068.03;10376253;28;20662;-23
2022/07/20 21:36:26;;;;;;;6.00;5.40;;;;;;;21.14;73.44;97045.13;10379033;28;20292;-23
2022/07/20 21:41:27;;;;;;;5.77;5.10;;;;;;;21.26;74.02;97075.66;10376903;28;20341;-24
2022/07/20 21:46:28;;;;;;;6.77;6.00;;;;;;;21.22;74.58;97073.13;10374358;28;20291;-23
2022/07/20 21:51:29;;;;;;;6.50;5.72;;;;;;;21.32;74.22;97052.66;10382123;28;20039;-23
2022/07/20 21:56:30;;;;;;;7.32;6.25;;;;;;;21.28;75.71;97058.66;10367161;28;20045;-24
2022/07/20 22:01:31;;;;;;;8.13;5.65;;;;;;;21.22;76.28;97066.31;10372057;28;20048;-24
2022/07/20 22:06:32;;;;;;;7.75;6.35;;;;;;;21.04;76.63;97068.13;10366537;28;20034;-23
2022/07/20 22:11:32;;;;;;;8.00;7.20;;;;;;;21.12;77.28;97086.72;10372477;28;20034;-23
2022/07/20 22:16:33;;;;;;;8.02;7.18;;;;;;;21.10;77.17;97068.94;10373484;28;20042;-23
2022/07/20 22:21:33;;;;;;;8.98;7.15;;;;;;;21.08;78.13;97085.06;10377307;28;20026;-24
2022/07/20 22:26:37;;;;;;;8.07;7.10;;;;;;;21.06;78.10;97082.53;10364999;28;20037;-23
2022/07/20 22:31:37;;;;;;;11.20;7.95;;;;;;;21.10;77.50;97080.81;10366281;28;20041;-23
2022/07/20 22:36:37;;;;;;;8.57;7.67;;;;;;;21.06;78.37;97090.16;10377102;28;20033;-23
2022/07/20 22:41:38;;;;;;;10.17;8.33;;;;;;;21.05;78.38;97073.19;10371752;28;20450;-23
2022/07/20 22:46:38;;;;;;;10.63;8.40;;;;;;;20.97;78.80;97072.38;10371706;28;20484;-24
2022/07/20 22:51:38;;;;;;;13.23;9.67;;;;;;;21.10;77.89;97063.84;10379581;28;20282;-23
2022/07/20 22:56:39;;;;;;;10.55;9.45;;;;;;;21.03;78.20;97076.59;10370903;28;20042;-23
2022/07/20 23:01:39;;;;;;;12.02;10.23;;;;;;;20.99;79.31;97075.75;10369174;28;20040;-23
2022/07/20 23:06:40;;;;;;;12.68;8.85;;;;;;;20.86;79.13;97069.03;10373119;28;20030;-22
2022/07/20 23:11:40;;;;;;;12.60;10.13;;;;;;;21.10;77.72;97048.56;10377065;28;20515;-23
2022/07/20 23:16:41;;;;;;;11.10;9.53;;;;;;;21.01;78.77;97048.63;10369375;28;20038;-23
2022/07/20 23:21:41;;;;;;;9.10;8.20;;;;;;;20.90;79.37;97045.25;10375002;28;20045;-22
2022/07/20 23:26:42;;;;;;;10.95;9.85;;;;;;;21.07;78.54;97058.75;10370854;28;20284;-23